METAR Data
IDs: Format: Raw Decoded Include TAF

Data at: 1813 UTC 16 Oct 2021

LTAZ 161750Z 12008KT 9999 FEW040 SCT100 14/03 Q1015 RMK RWY29 15006KT